Melrose, New Mexico
Current Conditions -  °F | °C
As of 7:56 PM on Monday 20 Oct 2014 (Local Time) from K4MR Reporting Station
Broken Clouds Broken Clouds  
Wind Chill: 57°   Ceiling: 4900
Heat Index: 57°   Visibility: 10mi
Dew Point: 55°   Wind: 8mph
Humidity: 92%   Direction: 290°WNW
Pressure: 30.16"   Gusts: NA
Location:  34.43°N, 103.63°W
Report Text: K4MR 210156Z AUTO 29007KT 10SM FEW028 BKN049 BKN150 BKN180 14/13 A3016 RMK AO2 LTG DSNT W-NW SLP186 P0020 T01370125
Loading
Personal Weather Stations






























Interactive Weather Map
Tropical Storm Tracking
New forecast layout! Learn more

10-Day Weather Forecast

Advertisements
Track Severe Weather on mobile